aviador You're here:

LFPO Decoded Metar

PARIS ORLY in FRANCE
Report Time2018-01-17 05:00:00
UTC Time2018-01-17 05:16:12
Flight Rules mvfr MVFR
Wind270° at 16 kt
W.Decomp.*RWY 26: 15.7 kt HW 3.1 kt RCW
RWY 24: 13.7 kt HW 8.2 kt RCW
RWY 20: 5.2 kt HW 15.1 kt RCW
W.Rank270° ranks 14
Current wind is above 270° avg. (6.7)
Visibility9999 m
Phenomena:Shower Rain
Clouds:Broken 025 Hf
Broken 043 Hf
Expected CloudBase > 1,200 ft AGL from Temp-Dew spread
Ceiling2,500 ft
Temp04°C (ISA -10)
Dew Point01°C (81% RH)
AAT-3.6°C
QNH1006 hPa
Density Alt-610 ft
Elevation315 ft
Report Wrong Elevation
Raw Report
LFPO 170500Z 27016KT 9999 BKN025 BKN043 04/01 Q1006 RESHRA TEMPO
4000 SHRA BKN020CB=

Extra information for LFPO:More info

Metar Taf Metar & Taf Last 4 Metars F.Rules Stats Wind Profile Meteogram Temp Stats Airport Information Weather charts Add Link Nearby VenuesMetar ALERT Operation Metar Decoded Social comments